sensor_id;sensor_type;location;lat;lon;timestamp;P1;durP1;ratioP1;P2;durP2;ratioP2
7903;SDS011;3997;48.416;8.512;2023-10-08T00:02:08;4.05;;;3.60;;
7903;SDS011;3997;48.416;8.512;2023-10-08T00:04:35;6.10;;;3.78;;
7903;SDS011;3997;48.416;8.512;2023-10-08T00:07:03;5.90;;;3.92;;
7903;SDS011;3997;48.416;8.512;2023-10-08T00:09:32;4.88;;;3.90;;
7903;SDS011;3997;48.416;8.512;2023-10-08T00:12:02;4.18;;;3.78;;
7903;SDS011;3997;48.416;8.512;2023-10-08T00:14:29;4.72;;;3.53;;
7903;SDS011;3997;48.416;8.512;2023-10-08T00:16:56;7.05;;;3.92;;
7903;SDS011;3997;48.416;8.512;2023-10-08T00:19:25;7.35;;;4.07;;
7903;SDS011;3997;48.416;8.512;2023-10-08T00:21:58;6.15;;;3.85;;
7903;SDS011;3997;48.416;8.512;2023-10-08T00:24:29;4.47;;;3.60;;
7903;SDS011;3997;48.416;8.512;2023-10-08T00:26:58;7.60;;;3.88;;
7903;SDS011;3997;48.416;8.512;2023-10-08T00:29:26;4.38;;;3.45;;
7903;SDS011;3997;48.416;8.512;2023-10-08T00:31:56;5.13;;;3.63;;
7903;SDS011;3997;48.416;8.512;2023-10-08T00:34:23;6.88;;;3.42;;
7903;SDS011;3997;48.416;8.512;2023-10-08T00:36:50;5.50;;;3.72;;
7903;SDS011;3997;48.416;8.512;2023-10-08T00:39:17;3.90;;;3.55;;
7903;SDS011;3997;48.416;8.512;2023-10-08T00:41:48;5.95;;;3.65;;
7903;SDS011;3997;48.416;8.512;2023-10-08T00:44:15;5.70;;;3.65;;
7903;SDS011;3997;48.416;8.512;2023-10-08T00:46:49;6.30;;;3.67;;
7903;SDS011;3997;48.416;8.512;2023-10-08T00:49:17;4.28;;;3.20;;
7903;SDS011;3997;48.416;8.512;2023-10-08T00:52:05;6.75;;;4.55;;
7903;SDS011;3997;48.416;8.512;2023-10-08T00:54:51;5.55;;;3.50;;
7903;SDS011;3997;48.416;8.512;2023-10-08T00:57:31;6.25;;;3.30;;
7903;SDS011;3997;48.416;8.512;2023-10-08T01:00:00;6.22;;;3.67;;
7903;SDS011;3997;48.416;8.512;2023-10-08T01:02:31;3.60;;;3.30;;
7903;SDS011;3997;48.416;8.512;2023-10-08T01:05:10;3.70;;;3.13;;
7903;SDS011;3997;48.416;8.512;2023-10-08T01:07:37;4.32;;;3.38;;
7903;SDS011;3997;48.416;8.512;2023-10-08T01:10:09;3.53;;;3.10;;
7903;SDS011;3997;48.416;8.512;2023-10-08T01:12:38;6.88;;;3.20;;
7903;SDS011;3997;48.416;8.512;2023-10-08T01:15:14;3.63;;;3.08;;
7903;SDS011;3997;48.416;8.512;2023-10-08T01:17:49;6.05;;;3.50;;
7903;SDS011;3997;48.416;8.512;2023-10-08T01:20:23;3.25;;;2.90;;
7903;SDS011;3997;48.416;8.512;2023-10-08T01:23:00;7.85;;;3.13;;
7903;SDS011;3997;48.416;8.512;2023-10-08T01:25:38;4.28;;;3.05;;
7903;SDS011;3997;48.416;8.512;2023-10-08T01:28:05;4.75;;;3.53;;
7903;SDS011;3997;48.416;8.512;2023-10-08T01:30:39;6.50;;;3.47;;
7903;SDS011;3997;48.416;8.512;2023-10-08T01:33:07;6.68;;;3.53;;
7903;SDS011;3997;48.416;8.512;2023-10-08T01:35:36;5.32;;;3.40;;
7903;SDS011;3997;48.416;8.512;2023-10-08T01:38:05;5.82;;;3.30;;
7903;SDS011;3997;48.416;8.512;2023-10-08T01:40:32;5.70;;;3.22;;
7903;SDS011;3997;48.416;8.512;2023-10-08T01:42:58;6.22;;;3.63;;
7903;SDS011;3997;48.416;8.512;2023-10-08T01:45:26;4.00;;;3.47;;
7903;SDS011;3997;48.416;8.512;2023-10-08T01:47:54;5.10;;;3.33;;
7903;SDS011;3997;48.416;8.512;2023-10-08T01:50:22;4.28;;;3.72;;
7903;SDS011;3997;48.416;8.512;2023-10-08T01:52:50;9.68;;;3.20;;
7903;SDS011;3997;48.416;8.512;2023-10-08T01:55:18;3.35;;;3.05;;
7903;SDS011;3997;48.416;8.512;2023-10-08T01:57:47;8.60;;;3.70;;
7903;SDS011;3997;48.416;8.512;2023-10-08T02:00:13;4.65;;;3.30;;
7903;SDS011;3997;48.416;8.512;2023-10-08T02:02:44;5.18;;;3.28;;
7903;SDS011;3997;48.416;8.512;2023-10-08T02:05:10;5.78;;;3.17;;
7903;SDS011;3997;48.416;8.512;2023-10-08T02:07:39;5.25;;;3.10;;
7903;SDS011;3997;48.416;8.512;2023-10-08T02:10:06;6.28;;;3.05;;
7903;SDS011;3997;48.416;8.512;2023-10-08T02:12:37;7.43;;;3.33;;
7903;SDS011;3997;48.416;8.512;2023-10-08T02:15:04;6.30;;;3.08;;
7903;SDS011;3997;48.416;8.512;2023-10-08T02:17:30;6.43;;;2.90;;
7903;SDS011;3997;48.416;8.512;2023-10-08T02:19:57;5.70;;;3.22;;
7903;SDS011;3997;48.416;8.512;2023-10-08T02:22:24;4.88;;;2.92;;
7903;SDS011;3997;48.416;8.512;2023-10-08T02:24:50;3.45;;;2.83;;
7903;SDS011;3997;48.416;8.512;2023-10-08T02:27:18;7.32;;;3.33;;
7903;SDS011;3997;48.416;8.512;2023-10-08T02:29:46;3.83;;;2.80;;
7903;SDS011;3997;48.416;8.512;2023-10-08T02:32:12;4.20;;;2.90;;
7903;SDS011;3997;48.416;8.512;2023-10-08T02:34:39;5.47;;;2.90;;
7903;SDS011;3997;48.416;8.512;2023-10-08T02:37:05;5.63;;;2.45;;
7903;SDS011;3997;48.416;8.512;2023-10-08T02:39:32;4.90;;;3.10;;
7903;SDS011;3997;48.416;8.512;2023-10-08T02:42:00;3.50;;;2.85;;
7903;SDS011;3997;48.416;8.512;2023-10-08T02:44:26;4.22;;;2.97;;
7903;SDS011;3997;48.416;8.512;2023-10-08T02:46:54;6.50;;;2.90;;
7903;SDS011;3997;48.416;8.512;2023-10-08T02:49:21;4.47;;;3.20;;
7903;SDS011;3997;48.416;8.512;2023-10-08T02:51:49;7.22;;;3.10;;
7903;SDS011;3997;48.416;8.512;2023-10-08T02:54:16;3.67;;;2.88;;
7903;SDS011;3997;48.416;8.512;2023-10-08T02:56:43;6.10;;;3.33;;
7903;SDS011;3997;48.416;8.512;2023-10-08T02:59:11;7.22;;;3.50;;
7903;SDS011;3997;48.416;8.512;2023-10-08T03:01:39;4.68;;;3.30;;
7903;SDS011;3997;48.416;8.512;2023-10-08T03:04:07;3.97;;;3.30;;
7903;SDS011;3997;48.416;8.512;2023-10-08T03:06:42;7.30;;;3.25;;
7903;SDS011;3997;48.416;8.512;2023-10-08T03:09:09;3.58;;;3.28;;
7903;SDS011;3997;48.416;8.512;2023-10-08T03:11:38;5.72;;;3.50;;
7903;SDS011;3997;48.416;8.512;2023-10-08T03:14:11;9.68;;;3.38;;
7903;SDS011;3997;48.416;8.512;2023-10-08T03:16:40;6.03;;;3.08;;
7903;SDS011;3997;48.416;8.512;2023-10-08T03:19:08;5.32;;;2.70;;
7903;SDS011;3997;48.416;8.512;2023-10-08T03:21:34;5.03;;;3.05;;
7903;SDS011;3997;48.416;8.512;2023-10-08T03:24:14;4.20;;;3.03;;
7903;SDS011;3997;48.416;8.512;2023-10-08T03:26:54;4.35;;;3.00;;
7903;SDS011;3997;48.416;8.512;2023-10-08T03:29:31;4.05;;;3.15;;
7903;SDS011;3997;48.416;8.512;2023-10-08T03:31:57;5.93;;;3.28;;
7903;SDS011;3997;48.416;8.512;2023-10-08T03:34:25;5.78;;;3.20;;
7903;SDS011;3997;48.416;8.512;2023-10-08T03:36:54;6.65;;;3.28;;
7903;SDS011;3997;48.416;8.512;2023-10-08T03:39:30;3.53;;;3.10;;
7903;SDS011;3997;48.416;8.512;2023-10-08T03:42:18;7.38;;;3.45;;
7903;SDS011;3997;48.416;8.512;2023-10-08T03:44:46;4.53;;;3.20;;
7903;SDS011;3997;48.416;8.512;2023-10-08T03:47:16;6.03;;;3.00;;
7903;SDS011;3997;48.416;8.512;2023-10-08T03:49:45;7.03;;;3.28;;
7903;SDS011;3997;48.416;8.512;2023-10-08T03:52:14;6.93;;;3.00;;
7903;SDS011;3997;48.416;8.512;2023-10-08T03:54:41;4.55;;;2.90;;
7903;SDS011;3997;48.416;8.512;2023-10-08T03:57:13;8.05;;;3.05;;
7903;SDS011;3997;48.416;8.512;2023-10-08T03:59:44;5.93;;;3.08;;
7903;SDS011;3997;48.416;8.512;2023-10-08T04:02:13;8.35;;;3.00;;
7903;SDS011;3997;48.416;8.512;2023-10-08T04:04:40;3.35;;;2.90;;
7903;SDS011;3997;48.416;8.512;2023-10-08T04:07:25;6.28;;;2.80;;
7903;SDS011;3997;48.416;8.512;2023-10-08T04:09:54;4.18;;;2.80;;
7903;SDS011;3997;48.416;8.512;2023-10-08T04:12:41;3.72;;;2.70;;
7903;SDS011;3997;48.416;8.512;2023-10-08T04:15:09;3.85;;;2.90;;
7903;SDS011;3997;48.416;8.512;2023-10-08T04:17:37;5.68;;;3.13;;
7903;SDS011;3997;48.416;8.512;2023-10-08T04:20:09;5.38;;;3.30;;
7903;SDS011;3997;48.416;8.512;2023-10-08T04:22:58;5.03;;;3.10;;
7903;SDS011;3997;48.416;8.512;2023-10-08T04:25:25;7.55;;;2.90;;
7903;SDS011;3997;48.416;8.512;2023-10-08T04:27:53;4.68;;;2.92;;
7903;SDS011;3997;48.416;8.512;2023-10-08T04:30:19;4.70;;;3.05;;
7903;SDS011;3997;48.416;8.512;2023-10-08T04:32:47;3.88;;;3.30;;
7903;SDS011;3997;48.416;8.512;2023-10-08T04:35:17;5.80;;;2.78;;
7903;SDS011;3997;48.416;8.512;2023-10-08T04:37:50;9.25;;;2.95;;
7903;SDS011;3997;48.416;8.512;2023-10-08T04:40:19;5.20;;;2.90;;
7903;SDS011;3997;48.416;8.512;2023-10-08T04:42:49;5.93;;;3.05;;
7903;SDS011;3997;48.416;8.512;2023-10-08T04:45:15;5.30;;;3.47;;
7903;SDS011;3997;48.416;8.512;2023-10-08T04:47:44;3.83;;;2.95;;
7903;SDS011;3997;48.416;8.512;2023-10-08T04:50:14;7.10;;;3.08;;
7903;SDS011;3997;48.416;8.512;2023-10-08T04:52:43;3.92;;;2.95;;
7903;SDS011;3997;48.416;8.512;2023-10-08T04:55:24;4.85;;;3.15;;
7903;SDS011;3997;48.416;8.512;2023-10-08T04:57:54;3.13;;;2.83;;
7903;SDS011;3997;48.416;8.512;2023-10-08T05:00:20;4.57;;;2.90;;
7903;SDS011;3997;48.416;8.512;2023-10-08T05:03:06;9.98;;;3.42;;
7903;SDS011;3997;48.416;8.512;2023-10-08T05:05:38;4.25;;;3.13;;
7903;SDS011;3997;48.416;8.512;2023-10-08T05:08:20;3.40;;;2.72;;
7903;SDS011;3997;48.416;8.512;2023-10-08T05:10:55;7.45;;;3.33;;
7903;SDS011;3997;48.416;8.512;2023-10-08T05:13:35;6.30;;;2.75;;
7903;SDS011;3997;48.416;8.512;2023-10-08T05:16:10;6.22;;;2.97;;
7903;SDS011;3997;48.416;8.512;2023-10-08T05:19:00;5.55;;;3.00;;
7903;SDS011;3997;48.416;8.512;2023-10-08T05:21:39;6.03;;;2.92;;
7903;SDS011;3997;48.416;8.512;2023-10-08T05:24:17;6.25;;;3.30;;
7903;SDS011;3997;48.416;8.512;2023-10-08T05:26:53;4.47;;;3.13;;
7903;SDS011;3997;48.416;8.512;2023-10-08T05:29:39;3.33;;;3.03;;
7903;SDS011;3997;48.416;8.512;2023-10-08T05:32:17;6.20;;;3.50;;
7903;SDS011;3997;48.416;8.512;2023-10-08T05:35:03;7.32;;;3.30;;
7903;SDS011;3997;48.416;8.512;2023-10-08T05:37:43;5.13;;;2.88;;
7903;SDS011;3997;48.416;8.512;2023-10-08T05:40:17;6.43;;;2.95;;
7903;SDS011;3997;48.416;8.512;2023-10-08T05:43:04;4.03;;;3.33;;
7903;SDS011;3997;48.416;8.512;2023-10-08T05:45:48;4.20;;;2.88;;
7903;SDS011;3997;48.416;8.512;2023-10-08T05:48:18;4.93;;;2.83;;
7903;SDS011;3997;48.416;8.512;2023-10-08T05:50:52;3.80;;;2.63;;
7903;SDS011;3997;48.416;8.512;2023-10-08T05:53:20;4.68;;;2.88;;
7903;SDS011;3997;48.416;8.512;2023-10-08T05:56:08;3.88;;;2.90;;
7903;SDS011;3997;48.416;8.512;2023-10-08T05:58:54;6.13;;;3.40;;
7903;SDS011;3997;48.416;8.512;2023-10-08T06:01:40;9.75;;;3.28;;
7903;SDS011;3997;48.416;8.512;2023-10-08T06:04:06;6.43;;;3.50;;
7903;SDS011;3997;48.416;8.512;2023-10-08T06:06:56;5.20;;;3.75;;
7903;SDS011;3997;48.416;8.512;2023-10-08T06:09:37;6.03;;;3.40;;
7903;SDS011;3997;48.416;8.512;2023-10-08T06:12:05;7.97;;;3.40;;
7903;SDS011;3997;48.416;8.512;2023-10-08T06:14:37;7.47;;;3.80;;
7903;SDS011;3997;48.416;8.512;2023-10-08T06:17:32;4.93;;;3.30;;
7903;SDS011;3997;48.416;8.512;2023-10-08T06:20:24;6.55;;;3.33;;
7903;SDS011;3997;48.416;8.512;2023-10-08T06:22:52;5.20;;;3.50;;
7903;SDS011;3997;48.416;8.512;2023-10-08T06:25:25;6.22;;;3.15;;
7903;SDS011;3997;48.416;8.512;2023-10-08T06:27:53;4.85;;;3.58;;
7903;SDS011;3997;48.416;8.512;2023-10-08T06:30:22;5.05;;;3.20;;
7903;SDS011;3997;48.416;8.512;2023-10-08T06:32:50;4.68;;;3.47;;
7903;SDS011;3997;48.416;8.512;2023-10-08T06:35:19;5.82;;;3.53;;
7903;SDS011;3997;48.416;8.512;2023-10-08T06:37:50;4.95;;;3.60;;
7903;SDS011;3997;48.416;8.512;2023-10-08T06:40:19;4.45;;;2.95;;
7903;SDS011;3997;48.416;8.512;2023-10-08T06:43:15;6.00;;;3.15;;
7903;SDS011;3997;48.416;8.512;2023-10-08T06:45:44;12.30;;;3.35;;
7903;SDS011;3997;48.416;8.512;2023-10-08T06:48:11;6.32;;;3.20;;
7903;SDS011;3997;48.416;8.512;2023-10-08T06:50:43;5.25;;;3.22;;
7903;SDS011;3997;48.416;8.512;2023-10-08T06:53:10;5.35;;;2.78;;
7903;SDS011;3997;48.416;8.512;2023-10-08T06:55:39;6.00;;;2.83;;
7903;SDS011;3997;48.416;8.512;2023-10-08T06:58:06;3.45;;;2.70;;
7903;SDS011;3997;48.416;8.512;2023-10-08T07:00:34;8.25;;;3.03;;
7903;SDS011;3997;48.416;8.512;2023-10-08T07:03:13;4.57;;;2.50;;
7903;SDS011;3997;48.416;8.512;2023-10-08T07:05:41;7.18;;;2.75;;
7903;SDS011;3997;48.416;8.512;2023-10-08T07:08:09;4.78;;;2.22;;
7903;SDS011;3997;48.416;8.512;2023-10-08T07:10:38;5.18;;;3.13;;
7903;SDS011;3997;48.416;8.512;2023-10-08T07:13:06;6.85;;;2.78;;
7903;SDS011;3997;48.416;8.512;2023-10-08T07:15:33;7.95;;;3.17;;
7903;SDS011;3997;48.416;8.512;2023-10-08T07:18:03;7.55;;;3.15;;
7903;SDS011;3997;48.416;8.512;2023-10-08T07:20:36;4.13;;;2.78;;
7903;SDS011;3997;48.416;8.512;2023-10-08T07:23:05;6.05;;;2.75;;
7903;SDS011;3997;48.416;8.512;2023-10-08T07:25:43;4.20;;;2.50;;
7903;SDS011;3997;48.416;8.512;2023-10-08T07:28:12;3.83;;;2.60;;
7903;SDS011;3997;48.416;8.512;2023-10-08T07:30:38;3.17;;;2.47;;
7903;SDS011;3997;48.416;8.512;2023-10-08T07:33:09;5.68;;;2.80;;
7903;SDS011;3997;48.416;8.512;2023-10-08T07:35:44;5.00;;;2.42;;
7903;SDS011;3997;48.416;8.512;2023-10-08T07:38:17;4.53;;;2.83;;
7903;SDS011;3997;48.416;8.512;2023-10-08T07:40:43;6.93;;;2.42;;
7903;SDS011;3997;48.416;8.512;2023-10-08T07:43:10;3.42;;;2.53;;
7903;SDS011;3997;48.416;8.512;2023-10-08T07:45:37;2.92;;;2.30;;
7903;SDS011;3997;48.416;8.512;2023-10-08T07:48:04;4.47;;;2.50;;
7903;SDS011;3997;48.416;8.512;2023-10-08T07:50:34;5.30;;;2.85;;
7903;SDS011;3997;48.416;8.512;2023-10-08T07:53:04;7.55;;;3.17;;
7903;SDS011;3997;48.416;8.512;2023-10-08T07:55:31;3.70;;;2.80;;
7903;SDS011;3997;48.416;8.512;2023-10-08T07:57:58;3.75;;;2.58;;
7903;SDS011;3997;48.416;8.512;2023-10-08T08:00:24;5.18;;;2.60;;
7903;SDS011;3997;48.416;8.512;2023-10-08T08:02:55;3.30;;;2.50;;
7903;SDS011;3997;48.416;8.512;2023-10-08T08:05:22;4.38;;;2.90;;
7903;SDS011;3997;48.416;8.512;2023-10-08T08:07:50;5.72;;;2.72;;
7903;SDS011;3997;48.416;8.512;2023-10-08T08:10:18;3.78;;;2.85;;
7903;SDS011;3997;48.416;8.512;2023-10-08T08:12:48;4.70;;;3.15;;
7903;SDS011;3997;48.416;8.512;2023-10-08T08:15:16;4.38;;;2.95;;
7903;SDS011;3997;48.416;8.512;2023-10-08T08:17:43;4.60;;;3.10;;
7903;SDS011;3997;48.416;8.512;2023-10-08T08:20:13;4.68;;;3.30;;
7903;SDS011;3997;48.416;8.512;2023-10-08T08:22:43;4.10;;;2.88;;
7903;SDS011;3997;48.416;8.512;2023-10-08T08:25:15;4.80;;;3.00;;
7903;SDS011;3997;48.416;8.512;2023-10-08T08:27:43;3.88;;;3.25;;
7903;SDS011;3997;48.416;8.512;2023-10-08T08:30:12;4.22;;;3.33;;
7903;SDS011;3997;48.416;8.512;2023-10-08T08:32:41;5.00;;;2.92;;
7903;SDS011;3997;48.416;8.512;2023-10-08T08:35:08;39.13;;;35.90;;
7903;SDS011;3997;48.416;8.512;2023-10-08T08:37:35;45.50;;;42.25;;
7903;SDS011;3997;48.416;8.512;2023-10-08T08:40:03;5.85;;;5.30;;
7903;SDS011;3997;48.416;8.512;2023-10-08T08:42:33;7.75;;;4.63;;
7903;SDS011;3997;48.416;8.512;2023-10-08T08:45:03;8.15;;;3.25;;
7903;SDS011;3997;48.416;8.512;2023-10-08T08:47:52;5.57;;;3.20;;
7903;SDS011;3997;48.416;8.512;2023-10-08T08:50:22;5.13;;;3.30;;
7903;SDS011;3997;48.416;8.512;2023-10-08T08:52:51;5.75;;;3.35;;
7903;SDS011;3997;48.416;8.512;2023-10-08T08:55:21;3.97;;;3.58;;
7903;SDS011;3997;48.416;8.512;2023-10-08T08:57:48;5.50;;;3.20;;
7903;SDS011;3997;48.416;8.512;2023-10-08T09:00:18;4.53;;;3.50;;
7903;SDS011;3997;48.416;8.512;2023-10-08T09:02:45;4.22;;;3.40;;
7903;SDS011;3997;48.416;8.512;2023-10-08T09:05:12;4.60;;;3.10;;
7903;SDS011;3997;48.416;8.512;2023-10-08T09:07:56;5.35;;;3.47;;
7903;SDS011;3997;48.416;8.512;2023-10-08T09:10:23;3.72;;;2.97;;
7903;SDS011;3997;48.416;8.512;2023-10-08T09:12:53;5.10;;;3.38;;
7903;SDS011;3997;48.416;8.512;2023-10-08T09:15:23;5.25;;;3.72;;
7903;SDS011;3997;48.416;8.512;2023-10-08T09:17:52;4.30;;;3.85;;
7903;SDS011;3997;48.416;8.512;2023-10-08T09:20:20;6.82;;;3.92;;
7903;SDS011;3997;48.416;8.512;2023-10-08T09:22:47;5.97;;;3.72;;
7903;SDS011;3997;48.416;8.512;2023-10-08T09:25:32;7.18;;;3.97;;
7903;SDS011;3997;48.416;8.512;2023-10-08T09:27:59;4.93;;;4.30;;
7903;SDS011;3997;48.416;8.512;2023-10-08T09:30:27;6.90;;;4.60;;
7903;SDS011;3997;48.416;8.512;2023-10-08T09:32:55;8.75;;;4.82;;
7903;SDS011;3997;48.416;8.512;2023-10-08T09:35:24;5.75;;;4.28;;
7903;SDS011;3997;48.416;8.512;2023-10-08T09:37:52;6.10;;;4.50;;
7903;SDS011;3997;48.416;8.512;2023-10-08T09:40:22;10.07;;;4.78;;
7903;SDS011;3997;48.416;8.512;2023-10-08T09:42:50;6.40;;;4.60;;
7903;SDS011;3997;48.416;8.512;2023-10-08T09:45:20;7.93;;;5.18;;
7903;SDS011;3997;48.416;8.512;2023-10-08T09:47:50;7.35;;;4.90;;
7903;SDS011;3997;48.416;8.512;2023-10-08T09:50:19;7.72;;;4.40;;
7903;SDS011;3997;48.416;8.512;2023-10-08T09:52:49;10.43;;;4.63;;
7903;SDS011;3997;48.416;8.512;2023-10-08T09:55:17;9.55;;;5.53;;
7903;SDS011;3997;48.416;8.512;2023-10-08T09:57:45;9.27;;;5.40;;
7903;SDS011;3997;48.416;8.512;2023-10-08T10:00:12;10.07;;;5.18;;
7903;SDS011;3997;48.416;8.512;2023-10-08T10:02:41;9.40;;;5.00;;
7903;SDS011;3997;48.416;8.512;2023-10-08T10:05:11;9.55;;;4.68;;
7903;SDS011;3997;48.416;8.512;2023-10-08T10:07:40;8.52;;;4.65;;
7903;SDS011;3997;48.416;8.512;2023-10-08T10:12:51;8.77;;;4.60;;
7903;SDS011;3997;48.416;8.512;2023-10-08T10:15:19;7.63;;;4.90;;
7903;SDS011;3997;48.416;8.512;2023-10-08T10:17:48;7.18;;;4.63;;
7903;SDS011;3997;48.416;8.512;2023-10-08T10:20:16;10.93;;;5.45;;
7903;SDS011;3997;48.416;8.512;2023-10-08T10:22:46;8.07;;;4.72;;
7903;SDS011;3997;48.416;8.512;2023-10-08T10:25:15;11.32;;;5.03;;
7903;SDS011;3997;48.416;8.512;2023-10-08T10:27:51;6.95;;;5.22;;
7903;SDS011;3997;48.416;8.512;2023-10-08T10:30:39;5.68;;;4.47;;
7903;SDS011;3997;48.416;8.512;2023-10-08T10:33:06;8.35;;;5.22;;
7903;SDS011;3997;48.416;8.512;2023-10-08T10:35:34;10.25;;;4.75;;
7903;SDS011;3997;48.416;8.512;2023-10-08T10:38:05;8.73;;;4.72;;
7903;SDS011;3997;48.416;8.512;2023-10-08T10:40:32;9.57;;;4.88;;
7903;SDS011;3997;48.416;8.512;2023-10-08T10:43:04;8.95;;;5.10;;
7903;SDS011;3997;48.416;8.512;2023-10-08T10:45:32;9.75;;;4.18;;
7903;SDS011;3997;48.416;8.512;2023-10-08T10:48:08;6.50;;;4.72;;
7903;SDS011;3997;48.416;8.512;2023-10-08T10:50:40;8.10;;;4.43;;
7903;SDS011;3997;48.416;8.512;2023-10-08T10:53:14;5.65;;;4.30;;
7903;SDS011;3997;48.416;8.512;2023-10-08T10:55:41;6.85;;;4.43;;
7903;SDS011;3997;48.416;8.512;2023-10-08T10:58:23;9.93;;;4.80;;
7903;SDS011;3997;48.416;8.512;2023-10-08T11:00:50;9.05;;;4.75;;
7903;SDS011;3997;48.416;8.512;2023-10-08T11:03:22;9.40;;;4.68;;
7903;SDS011;3997;48.416;8.512;2023-10-08T11:05:57;8.57;;;4.75;;
7903;SDS011;3997;48.416;8.512;2023-10-08T11:08:25;11.35;;;5.10;;
7903;SDS011;3997;48.416;8.512;2023-10-08T11:10:52;6.80;;;4.88;;
7903;SDS011;3997;48.416;8.512;2023-10-08T11:13:23;6.68;;;4.72;;
7903;SDS011;3997;48.416;8.512;2023-10-08T11:15:53;9.50;;;4.53;;
7903;SDS011;3997;48.416;8.512;2023-10-08T11:18:23;8.20;;;4.57;;
7903;SDS011;3997;48.416;8.512;2023-10-08T11:20:50;12.52;;;4.47;;
7903;SDS011;3997;48.416;8.512;2023-10-08T11:23:34;9.23;;;4.13;;
7903;SDS011;3997;48.416;8.512;2023-10-08T11:26:01;8.45;;;4.60;;
7903;SDS011;3997;48.416;8.512;2023-10-08T11:28:29;10.60;;;4.22;;
7903;SDS011;3997;48.416;8.512;2023-10-08T11:30:56;7.47;;;4.70;;
7903;SDS011;3997;48.416;8.512;2023-10-08T11:33:29;7.57;;;4.88;;
7903;SDS011;3997;48.416;8.512;2023-10-08T11:35:56;9.35;;;5.07;;
7903;SDS011;3997;48.416;8.512;2023-10-08T11:38:25;8.93;;;5.05;;
7903;SDS011;3997;48.416;8.512;2023-10-08T11:41:10;10.30;;;4.82;;
7903;SDS011;3997;48.416;8.512;2023-10-08T11:43:39;13.65;;;5.03;;
7903;SDS011;3997;48.416;8.512;2023-10-08T11:46:05;9.88;;;4.90;;
7903;SDS011;3997;48.416;8.512;2023-10-08T11:48:32;8.50;;;4.55;;
7903;SDS011;3997;48.416;8.512;2023-10-08T11:51:06;10.75;;;4.65;;
7903;SDS011;3997;48.416;8.512;2023-10-08T11:53:37;6.90;;;4.38;;
7903;SDS011;3997;48.416;8.512;2023-10-08T11:56:03;12.07;;;5.53;;
7903;SDS011;3997;48.416;8.512;2023-10-08T11:58:39;9.05;;;4.90;;
7903;SDS011;3997;48.416;8.512;2023-10-08T12:01:09;9.70;;;5.53;;
7903;SDS011;3997;48.416;8.512;2023-10-08T12:03:41;13.70;;;5.88;;
7903;SDS011;3997;48.416;8.512;2023-10-08T12:06:08;10.52;;;5.55;;
7903;SDS011;3997;48.416;8.512;2023-10-08T12:08:36;9.32;;;5.18;;
7903;SDS011;3997;48.416;8.512;2023-10-08T12:11:04;8.32;;;4.97;;
7903;SDS011;3997;48.416;8.512;2023-10-08T12:13:36;13.10;;;5.55;;
7903;SDS011;3997;48.416;8.512;2023-10-08T12:16:04;12.40;;;5.50;;
7903;SDS011;3997;48.416;8.512;2023-10-08T12:18:37;8.60;;;4.80;;
7903;SDS011;3997;48.416;8.512;2023-10-08T12:21:05;12.98;;;5.53;;
7903;SDS011;3997;48.416;8.512;2023-10-08T12:23:35;12.55;;;5.18;;
7903;SDS011;3997;48.416;8.512;2023-10-08T12:26:02;12.88;;;5.85;;
7903;SDS011;3997;48.416;8.512;2023-10-08T12:28:33;9.60;;;4.55;;
7903;SDS011;3997;48.416;8.512;2023-10-08T12:31:01;11.27;;;4.68;;
7903;SDS011;3997;48.416;8.512;2023-10-08T12:33:30;13.88;;;4.70;;
7903;SDS011;3997;48.416;8.512;2023-10-08T12:35:56;12.70;;;4.80;;
7903;SDS011;3997;48.416;8.512;2023-10-08T12:38:23;12.98;;;5.32;;
7903;SDS011;3997;48.416;8.512;2023-10-08T12:40:53;10.70;;;4.63;;
7903;SDS011;3997;48.416;8.512;2023-10-08T12:43:19;13.13;;;5.18;;
7903;SDS011;3997;48.416;8.512;2023-10-08T12:45:46;10.20;;;5.43;;
7903;SDS011;3997;48.416;8.512;2023-10-08T12:48:18;13.77;;;5.93;;
7903;SDS011;3997;48.416;8.512;2023-10-08T12:50:45;10.55;;;4.53;;
7903;SDS011;3997;48.416;8.512;2023-10-08T12:53:18;13.65;;;5.15;;
7903;SDS011;3997;48.416;8.512;2023-10-08T12:55:49;12.77;;;5.00;;
7903;SDS011;3997;48.416;8.512;2023-10-08T12:58:18;16.52;;;5.28;;
7903;SDS011;3997;48.416;8.512;2023-10-08T13:00:45;12.00;;;5.50;;
7903;SDS011;3997;48.416;8.512;2023-10-08T13:03:14;12.93;;;4.75;;
7903;SDS011;3997;48.416;8.512;2023-10-08T13:05:49;12.00;;;5.47;;
7903;SDS011;3997;48.416;8.512;2023-10-08T13:08:17;13.10;;;5.38;;
7903;SDS011;3997;48.416;8.512;2023-10-08T13:10:45;14.68;;;5.40;;
7903;SDS011;3997;48.416;8.512;2023-10-08T13:13:11;18.55;;;5.35;;
7903;SDS011;3997;48.416;8.512;2023-10-08T13:15:37;12.10;;;5.32;;
7903;SDS011;3997;48.416;8.512;2023-10-08T13:18:04;13.93;;;5.78;;
7903;SDS011;3997;48.416;8.512;2023-10-08T13:20:31;12.13;;;4.55;;
7903;SDS011;3997;48.416;8.512;2023-10-08T13:23:00;13.70;;;4.88;;
7903;SDS011;3997;48.416;8.512;2023-10-08T13:25:27;12.40;;;5.13;;
7903;SDS011;3997;48.416;8.512;2023-10-08T13:27:55;13.43;;;5.30;;
7903;SDS011;3997;48.416;8.512;2023-10-08T13:30:22;11.57;;;5.45;;
7903;SDS011;3997;48.416;8.512;2023-10-08T13:32:49;14.77;;;6.00;;
7903;SDS011;3997;48.416;8.512;2023-10-08T13:35:16;12.50;;;5.28;;
7903;SDS011;3997;48.416;8.512;2023-10-08T13:37:43;8.60;;;4.70;;
7903;SDS011;3997;48.416;8.512;2023-10-08T13:40:11;14.27;;;5.55;;
7903;SDS011;3997;48.416;8.512;2023-10-08T13:42:40;7.45;;;4.93;;
7903;SDS011;3997;48.416;8.512;2023-10-08T13:45:08;9.15;;;4.88;;
7903;SDS011;3997;48.416;8.512;2023-10-08T13:47:34;16.38;;;6.20;;
7903;SDS011;3997;48.416;8.512;2023-10-08T13:50:05;10.88;;;5.25;;
7903;SDS011;3997;48.416;8.512;2023-10-08T13:52:35;10.80;;;5.25;;
7903;SDS011;3997;48.416;8.512;2023-10-08T13:55:04;14.38;;;5.78;;
7903;SDS011;3997;48.416;8.512;2023-10-08T13:57:33;10.10;;;5.57;;
7903;SDS011;3997;48.416;8.512;2023-10-08T13:59:59;18.00;;;6.13;;
7903;SDS011;3997;48.416;8.512;2023-10-08T14:02:26;15.25;;;5.18;;
7903;SDS011;3997;48.416;8.512;2023-10-08T14:04:55;15.02;;;6.03;;
7903;SDS011;3997;48.416;8.512;2023-10-08T14:07:23;13.85;;;5.30;;
7903;SDS011;3997;48.416;8.512;2023-10-08T14:09:50;13.43;;;6.03;;
7903;SDS011;3997;48.416;8.512;2023-10-08T14:12:16;14.35;;;6.03;;
7903;SDS011;3997;48.416;8.512;2023-10-08T14:14:44;10.48;;;5.43;;
7903;SDS011;3997;48.416;8.512;2023-10-08T14:17:11;12.43;;;5.43;;
7903;SDS011;3997;48.416;8.512;2023-10-08T14:19:40;15.77;;;5.90;;
7903;SDS011;3997;48.416;8.512;2023-10-08T14:22:11;10.07;;;5.70;;
7903;SDS011;3997;48.416;8.512;2023-10-08T14:24:39;13.13;;;5.90;;
7903;SDS011;3997;48.416;8.512;2023-10-08T14:27:05;12.48;;;5.38;;
7903;SDS011;3997;48.416;8.512;2023-10-08T14:29:36;10.15;;;5.95;;
7903;SDS011;3997;48.416;8.512;2023-10-08T14:32:06;14.20;;;5.35;;
7903;SDS011;3997;48.416;8.512;2023-10-08T14:34:35;10.52;;;5.20;;
7903;SDS011;3997;48.416;8.512;2023-10-08T14:37:19;10.82;;;5.13;;
7903;SDS011;3997;48.416;8.512;2023-10-08T14:40:03;11.38;;;5.50;;
7903;SDS011;3997;48.416;8.512;2023-10-08T14:42:47;9.40;;;5.15;;
7903;SDS011;3997;48.416;8.512;2023-10-08T14:45:20;10.57;;;5.63;;
7903;SDS011;3997;48.416;8.512;2023-10-08T14:47:49;13.02;;;6.53;;
7903;SDS011;3997;48.416;8.512;2023-10-08T14:50:15;10.25;;;5.85;;
7903;SDS011;3997;48.416;8.512;2023-10-08T14:52:42;14.07;;;6.18;;
7903;SDS011;3997;48.416;8.512;2023-10-08T14:55:09;13.93;;;6.00;;
7903;SDS011;3997;48.416;8.512;2023-10-08T14:57:35;11.07;;;5.50;;
7903;SDS011;3997;48.416;8.512;2023-10-08T15:00:02;10.77;;;5.30;;
7903;SDS011;3997;48.416;8.512;2023-10-08T15:02:30;12.30;;;5.78;;
7903;SDS011;3997;48.416;8.512;2023-10-08T15:04:59;11.20;;;5.80;;
7903;SDS011;3997;48.416;8.512;2023-10-08T15:07:26;10.73;;;5.78;;
7903;SDS011;3997;48.416;8.512;2023-10-08T15:09:53;12.02;;;5.80;;
7903;SDS011;3997;48.416;8.512;2023-10-08T15:12:22;16.65;;;5.70;;
7903;SDS011;3997;48.416;8.512;2023-10-08T15:14:50;14.65;;;5.78;;
7903;SDS011;3997;48.416;8.512;2023-10-08T15:17:16;14.02;;;6.00;;
7903;SDS011;3997;48.416;8.512;2023-10-08T15:19:43;11.30;;;6.00;;
7903;SDS011;3997;48.416;8.512;2023-10-08T15:22:12;9.85;;;5.50;;
7903;SDS011;3997;48.416;8.512;2023-10-08T15:24:39;11.88;;;5.68;;
7903;SDS011;3997;48.416;8.512;2023-10-08T15:27:05;11.95;;;5.78;;
7903;SDS011;3997;48.416;8.512;2023-10-08T15:29:32;11.68;;;5.35;;
7903;SDS011;3997;48.416;8.512;2023-10-08T15:31:58;10.73;;;5.72;;
7903;SDS011;3997;48.416;8.512;2023-10-08T15:34:25;13.73;;;5.60;;
7903;SDS011;3997;48.416;8.512;2023-10-08T15:36:52;12.32;;;5.70;;